createdAt,value
2019-04-23T00:02:23.293Z,73.22
2019-04-23T00:04:52.862Z,79.92
2019-04-23T00:07:44.524Z,70.30
2019-04-23T00:10:13.932Z,72.97
2019-04-23T00:12:43.790Z,74.85
2019-04-23T00:15:15.081Z,73.75
2019-04-23T00:23:02.085Z,65.20
2019-04-23T00:28:20.600Z,65.43
2019-04-23T00:33:31.435Z,59.90
2019-04-23T00:35:49.872Z,63.80
2019-04-23T00:38:30.447Z,59.13
2019-04-23T00:41:01.678Z,57.73
2019-04-23T00:43:30.342Z,60.95
2019-04-23T00:45:59.608Z,62.00
2019-04-23T00:51:02.332Z,60.67
2019-04-23T00:53:36.989Z,63.20
2019-04-23T00:56:35.572Z,65.55
2019-04-23T00:58:49.533Z,64.50
2019-04-23T01:01:33.855Z,63.17
2019-04-23T01:06:29.118Z,62.35
2019-04-23T01:09:03.859Z,56.23
2019-04-23T01:11:32.421Z,58.30
2019-04-23T01:14:08.160Z,55.00
2019-04-23T01:16:37.366Z,59.75
2019-04-23T01:19:31.580Z,56.92
2019-04-23T01:21:36.763Z,58.30
2019-04-23T01:24:17.267Z,65.63
2019-04-23T01:27:41.220Z,64.92
2019-04-23T01:30:06.014Z,66.65
2019-04-23T01:35:20.366Z,66.30
2019-04-23T01:42:44.885Z,66.07
2019-04-23T01:45:26.894Z,65.32
2019-04-23T01:47:50.494Z,61.77
2019-04-23T01:50:31.181Z,67.53
2019-04-23T01:53:00.785Z,63.45
2019-04-23T01:55:33.053Z,65.85
2019-04-23T01:58:20.382Z,65.52
2019-04-23T02:00:45.109Z,65.03
2019-04-23T02:03:26.610Z,64.92
2019-04-23T02:08:17.136Z,63.80
2019-04-23T02:15:53.128Z,62.88
2019-04-23T02:18:34.384Z,68.67
2019-04-23T02:21:07.604Z,71.75
2019-04-23T02:23:44.321Z,69.03
2019-04-23T02:26:20.126Z,65.50
2019-04-23T02:28:54.866Z,66.27
2019-04-23T02:31:45.100Z,64.70
2019-04-23T02:34:19.032Z,63.28
2019-04-23T02:36:41.621Z,64.12
2019-04-23T02:39:02.836Z,67.25
2019-04-23T02:44:19.143Z,67.77
2019-04-23T02:49:36.051Z,71.45
2019-04-23T02:54:44.259Z,73.83
2019-04-23T02:56:55.749Z,78.20
2019-04-23T03:07:36.601Z,109.42
2019-04-23T03:10:02.870Z,83.27
2019-04-23T03:18:16.287Z,76.85
2019-04-23T03:20:50.672Z,78.50
2019-04-23T03:23:16.499Z,73.63
2019-04-23T03:25:46.097Z,77.57
2019-04-23T03:28:26.988Z,80.53
2019-04-23T03:43:41.126Z,86.30
2019-04-23T03:48:46.687Z,89.97
2019-04-23T03:54:11.625Z,107.83
2019-04-23T03:56:34.333Z,105.78
2019-04-23T03:58:58.223Z,102.27
2019-04-23T04:04:26.341Z,104.85
2019-04-23T04:11:38.178Z,90.15
2019-04-23T04:14:33.851Z,100.30
2019-04-23T04:19:35.009Z,85.12
2019-04-23T04:22:16.438Z,85.65
2019-04-23T04:27:05.389Z,77.78
2019-04-23T04:29:47.442Z,80.25
2019-04-23T04:32:03.679Z,81.00
2019-04-23T04:35:06.907Z,74.32
2019-04-23T04:37:35.566Z,80.03
2019-04-23T04:42:18.718Z,94.70
2019-04-23T04:45:09.622Z,108.03
2019-04-23T04:47:36.219Z,113.22
2019-04-23T04:49:59.686Z,117.35
2019-04-23T05:03:03.666Z,118.53
2019-04-23T05:05:55.363Z,118.35
2019-04-23T05:10:32.499Z,107.78
2019-04-23T05:13:21.837Z,105.87
2019-04-23T05:15:35.533Z,110.32
2019-04-23T05:18:19.618Z,111.92
2019-04-23T05:20:48.308Z,87.63
2019-04-23T05:25:47.877Z,74.50
2019-04-23T05:28:18.815Z,75.25
2019-04-23T05:33:49.335Z,76.12
2019-04-23T05:36:12.324Z,79.20
2019-04-23T05:38:43.284Z,85.32
2019-04-23T05:41:10.409Z,77.85
2019-04-23T05:43:40.780Z,94.30
2019-04-23T05:46:21.891Z,78.72
2019-04-23T05:48:49.265Z,87.72
2019-04-23T05:51:27.945Z,105.37
2019-04-23T05:53:50.980Z,112.68
2019-04-23T05:56:22.625Z,115.35
2019-04-23T05:58:58.152Z,105.25
2019-04-23T06:01:49.906Z,81.57
2019-04-23T06:04:10.534Z,87.20
2019-04-23T06:11:56.959Z,70.35
2019-04-23T06:17:00.471Z,73.33
2019-04-23T06:19:20.817Z,70.52
2019-04-23T06:22:13.940Z,83.27
2019-04-23T06:24:39.786Z,114.15
2019-04-23T06:27:10.282Z,139.50
2019-04-23T06:29:44.706Z,109.83
2019-04-23T06:32:22.253Z,84.92
2019-04-23T06:35:08.751Z,78.55
2019-04-23T06:37:18.370Z,78.20
2019-04-23T06:39:57.033Z,73.62
2019-04-23T06:42:27.872Z,70.97
2019-04-23T06:47:29.374Z,68.97
2019-04-23T06:49:58.513Z,70.05
2019-04-23T06:52:31.429Z,66.50
2019-04-23T06:55:18.659Z,46.70
2019-04-23T06:58:02.198Z,40.10
2019-04-23T07:00:23.939Z,45.60
2019-04-23T07:02:56.675Z,41.58
2019-04-23T07:05:37.910Z,36.93
2019-04-23T07:10:42.188Z,25.55
2019-04-23T07:13:03.179Z,32.43
2019-04-23T07:15:48.470Z,26.12
2019-04-23T07:18:11.913Z,24.52
2019-04-23T07:20:50.934Z,18.90
2019-04-23T07:23:26.065Z,23.65
2019-04-23T07:25:59.328Z,24.60
2019-04-23T07:28:29.927Z,23.30
2019-04-23T07:31:02.454Z,20.82
2019-04-23T07:33:34.766Z,23.00
2019-04-23T07:36:15.614Z,25.02
2019-04-23T07:38:54.693Z,36.42
2019-04-23T07:41:47.869Z,36.38
2019-04-23T07:44:24.905Z,39.08
2019-04-23T07:47:03.334Z,32.17
2019-04-23T07:49:23.440Z,30.97
2019-04-23T07:52:03.625Z,30.80
2019-04-23T07:54:29.002Z,33.00
2019-04-23T07:57:12.211Z,32.03
2019-04-23T08:02:15.976Z,28.30
2019-04-23T08:04:57.913Z,28.75
2019-04-23T08:07:14.677Z,28.12
2019-04-23T08:12:29.170Z,28.47
2019-04-23T08:15:15.134Z,25.23
2019-04-23T08:17:26.170Z,26.07
2019-04-23T08:20:03.064Z,26.07
2019-04-23T08:22:32.354Z,23.83
2019-04-23T08:25:29.951Z,23.27
2019-04-23T08:27:45.146Z,21.85
2019-04-23T08:30:10.460Z,21.50
2019-04-23T08:32:52.346Z,19.12
2019-04-23T08:35:23.216Z,22.87
2019-04-23T08:38:11.678Z,22.95
2019-04-23T08:40:38.185Z,27.42
2019-04-23T08:43:29.589Z,41.40
2019-04-23T08:45:57.849Z,32.65
2019-04-23T08:51:19.417Z,27.87
2019-04-23T08:53:46.013Z,19.52
2019-04-23T08:56:15.499Z,22.55
2019-04-23T08:58:41.952Z,24.40
2019-04-23T09:01:16.905Z,27.60
2019-04-23T09:03:45.751Z,23.00
2019-04-23T09:06:25.822Z,21.85
2019-04-23T09:08:58.578Z,21.50
2019-04-23T09:11:44.016Z,20.68
2019-04-23T09:13:59.680Z,22.23
2019-04-23T09:16:46.899Z,22.35
2019-04-23T09:19:20.032Z,22.22
2019-04-23T09:21:56.002Z,20.77
2019-04-23T09:24:22.831Z,18.85
2019-04-23T09:27:03.878Z,20.30
2019-04-23T09:29:30.567Z,22.20
2019-04-23T09:34:46.498Z,21.93
2019-04-23T09:37:28.327Z,24.47
2019-04-23T09:40:18.876Z,26.02
2019-04-23T09:43:02.020Z,24.72
2019-04-23T09:48:08.566Z,30.10
2019-04-23T09:50:57.039Z,35.13
2019-04-23T09:53:33.914Z,31.35
2019-04-23T09:56:05.034Z,29.15
2019-04-23T09:58:28.724Z,28.65
2019-04-23T10:01:23.472Z,24.75
2019-04-23T10:03:46.281Z,29.37
2019-04-23T10:06:14.492Z,26.65
2019-04-23T10:08:46.472Z,27.05
2019-04-23T10:11:13.792Z,26.93
2019-04-23T10:13:45.581Z,26.85
2019-04-23T10:16:19.408Z,27.35
2019-04-23T10:18:50.904Z,28.17
2019-04-23T10:21:23.713Z,26.25
2019-04-23T10:23:55.207Z,27.10
2019-04-23T10:26:28.090Z,27.60
2019-04-23T10:29:02.320Z,24.37
2019-04-23T10:31:35.633Z,26.40
2019-04-23T10:34:08.281Z,24.97
2019-04-23T10:36:40.654Z,27.22
2019-04-23T10:39:20.757Z,27.45
2019-04-23T10:41:46.793Z,28.45
2019-04-23T10:44:23.524Z,29.07
2019-04-23T10:47:40.436Z,30.68
2019-04-23T10:50:40.722Z,27.52
2019-04-23T10:53:23.431Z,27.73
2019-04-23T10:55:47.928Z,28.55
2019-04-23T10:58:15.793Z,26.70
2019-04-23T11:00:44.960Z,25.90
2019-04-23T11:03:32.014Z,26.67
2019-04-23T11:08:24.890Z,28.70
2019-04-23T11:10:58.743Z,28.65
2019-04-23T11:13:56.583Z,30.37
2019-04-23T11:21:23.803Z,30.30
2019-04-23T11:23:55.206Z,26.47
2019-04-23T11:26:31.874Z,26.57
2019-04-23T11:28:55.042Z,28.62
2019-04-23T11:31:35.151Z,26.93
2019-04-23T11:34:06.051Z,28.30
2019-04-23T11:39:05.477Z,29.90
2019-04-23T11:41:51.457Z,28.23
2019-04-23T11:52:09.777Z,25.40
2019-04-23T11:54:33.724Z,26.90
2019-04-23T11:57:34.622Z,24.27
2019-04-23T11:59:44.023Z,24.12
2019-04-23T12:02:12.050Z,25.65
2019-04-23T12:05:02.340Z,25.17
2019-04-23T12:07:37.604Z,29.37
2019-04-23T12:10:19.833Z,22.30
2019-04-23T12:12:55.545Z,24.85
2019-04-23T12:15:23.819Z,23.15
2019-04-23T12:20:28.909Z,23.12
2019-04-23T12:23:07.430Z,24.45
2019-04-23T12:25:32.794Z,25.03
2019-04-23T12:27:59.626Z,26.60
2019-04-23T12:30:43.022Z,28.55
2019-04-23T12:33:11.107Z,30.27
2019-04-23T12:35:42.291Z,27.55
2019-04-23T12:40:51.094Z,26.65
2019-04-23T12:43:27.485Z,25.12
2019-04-23T12:45:51.959Z,24.52
2019-04-23T12:50:58.663Z,24.10
2019-04-23T12:53:49.336Z,21.97
2019-04-23T12:56:20.532Z,22.80
2019-04-23T12:58:37.898Z,23.40
2019-04-23T13:01:25.666Z,25.35
2019-04-23T13:03:47.434Z,25.65
2019-04-23T13:06:20.725Z,23.60
2019-04-23T13:09:08.053Z,20.82
2019-04-23T13:11:36.605Z,24.43
2019-04-23T13:14:10.557Z,21.67
2019-04-23T13:16:48.809Z,23.30
2019-04-23T13:19:25.679Z,23.12
2019-04-23T13:24:25.973Z,26.37
2019-04-23T13:27:06.108Z,23.65
2019-04-23T13:32:15.254Z,25.17
2019-04-23T13:34:48.367Z,22.80
2019-04-23T13:37:25.698Z,23.27
2019-04-23T13:39:53.001Z,21.77
2019-04-23T13:42:33.759Z,28.67
2019-04-23T13:45:07.033Z,23.12
2019-04-23T13:50:07.874Z,22.00
2019-04-23T13:53:09.646Z,25.40
2019-04-23T13:58:05.103Z,22.05
2019-04-23T14:00:24.961Z,21.33
2019-04-23T14:02:56.093Z,24.80
2019-04-23T14:05:33.110Z,22.25
2019-04-23T14:08:12.991Z,25.10
2019-04-23T14:10:39.708Z,24.92
2019-04-23T14:15:53.574Z,24.37
2019-04-23T14:21:03.602Z,26.57
2019-04-23T14:23:41.191Z,24.50
2019-04-23T14:26:20.766Z,24.92
2019-04-23T14:28:41.698Z,24.98
2019-04-23T14:33:46.015Z,25.95
2019-04-23T14:36:16.068Z,21.80
2019-04-23T14:38:52.733Z,25.72
2019-04-23T14:46:45.553Z,38.70
2019-04-23T14:51:37.514Z,23.05
2019-04-23T14:54:04.855Z,21.12
2019-04-23T14:56:44.986Z,21.95
2019-04-23T14:59:19.468Z,21.75
2019-04-23T15:01:48.978Z,24.40
2019-04-23T15:04:24.281Z,34.18
2019-04-23T15:07:02.584Z,28.90
2019-04-23T15:12:11.827Z,23.80
2019-04-23T15:14:47.930Z,20.88
2019-04-23T15:17:13.102Z,26.00
2019-04-23T15:28:03.443Z,18.73
2019-04-23T15:29:48.456Z,22.45
2019-04-23T15:32:34.330Z,24.00
2019-04-23T15:35:16.278Z,22.98
2019-04-23T15:37:58.240Z,20.23
2019-04-23T15:40:08.017Z,21.48
2019-04-23T15:42:48.480Z,22.10
2019-04-23T15:45:19.033Z,22.30
2019-04-23T15:47:52.485Z,43.30
2019-04-23T15:53:01.327Z,41.50
2019-04-23T15:55:44.375Z,30.07
2019-04-23T15:58:14.537Z,29.57
2019-04-23T16:00:46.793Z,23.47
2019-04-23T16:02:52.563Z,24.55
2019-04-23T16:05:25.726Z,22.63
2019-04-23T16:08:23.920Z,24.53
2019-04-23T16:11:09.805Z,22.00
2019-04-23T16:13:39.850Z,26.00
2019-04-23T16:16:07.709Z,20.92
2019-04-23T16:18:49.884Z,23.38
2019-04-23T16:21:29.224Z,22.55
2019-04-23T16:24:01.215Z,21.20
2019-04-23T16:26:30.098Z,27.23
2019-04-23T16:31:46.814Z,22.47
2019-04-23T16:34:23.911Z,27.67
2019-04-23T16:36:56.459Z,25.10
2019-04-23T16:39:21.988Z,23.95
2019-04-23T16:42:02.034Z,27.42
2019-04-23T16:44:38.787Z,28.15
2019-04-23T16:47:13.061Z,21.03
2019-04-23T16:49:42.353Z,20.23
2019-04-23T16:52:16.086Z,25.48
2019-04-23T16:54:53.548Z,24.43
2019-04-23T16:57:33.243Z,30.00
2019-04-23T17:00:06.635Z,28.15
2019-04-23T17:05:02.987Z,25.75
2019-04-23T17:07:24.268Z,24.87
2019-04-23T17:10:11.266Z,28.07
2019-04-23T17:12:35.541Z,26.53
2019-04-23T17:15:07.608Z,26.07
2019-04-23T17:17:37.950Z,29.80
2019-04-23T17:20:16.261Z,24.72
2019-04-23T17:23:00.297Z,34.27
2019-04-23T17:28:03.663Z,32.98
2019-04-23T17:33:18.670Z,27.73
2019-04-23T17:36:05.505Z,29.77
2019-04-23T17:38:42.547Z,30.45
2019-04-23T17:41:31.173Z,26.15
2019-04-23T17:44:18.156Z,29.82
2019-04-23T17:49:15.316Z,27.00
2019-04-23T17:52:09.117Z,32.67
2019-04-23T17:54:17.424Z,30.72
2019-04-23T17:59:28.106Z,32.73
2019-04-23T18:02:36.717Z,40.50
2019-04-23T18:04:33.278Z,44.75
2019-04-23T18:07:04.375Z,38.20
2019-04-23T18:09:37.956Z,39.23
2019-04-23T18:12:25.413Z,40.08
2019-04-23T18:14:39.242Z,37.60
2019-04-23T18:17:17.779Z,40.53
2019-04-23T18:20:14.960Z,43.98
2019-04-23T18:22:47.146Z,40.23
2019-04-23T18:25:28.031Z,38.38
2019-04-23T18:27:57.927Z,35.20
2019-04-23T18:30:51.064Z,27.82
2019-04-23T18:33:40.649Z,28.57
2019-04-23T18:41:01.322Z,28.27
2019-04-23T18:46:02.287Z,25.63
2019-04-23T18:53:45.626Z,24.15
2019-04-23T19:01:24.410Z,24.90
2019-04-23T19:04:09.814Z,22.50
2019-04-23T19:06:29.414Z,26.75
2019-04-23T19:12:07.174Z,20.52
2019-04-23T19:14:25.678Z,31.03
2019-04-23T19:17:25.039Z,22.17
2019-04-23T19:19:28.614Z,24.30
2019-04-23T19:22:19.392Z,25.00
2019-04-23T19:24:31.673Z,19.42
2019-04-23T19:29:46.281Z,17.65
2019-04-23T19:32:32.385Z,16.30
2019-04-23T19:34:42.614Z,19.62
2019-04-23T19:37:31.870Z,18.20
2019-04-23T19:39:47.741Z,17.33
2019-04-23T19:42:28.255Z,16.48
2019-04-23T19:44:54.079Z,15.63
2019-04-23T19:47:47.993Z,15.83
2019-04-23T19:50:05.410Z,15.10
2019-04-23T19:52:59.290Z,13.08
2019-04-23T19:55:11.922Z,17.95
2019-04-23T19:57:56.490Z,15.40
2019-04-23T20:00:19.332Z,15.68
2019-04-23T20:03:22.604Z,14.55
2019-04-23T20:05:24.716Z,19.75
2019-04-23T20:08:08.241Z,21.07
2019-04-23T20:10:33.055Z,18.15
2019-04-23T20:13:02.083Z,15.20
2019-04-23T20:15:49.263Z,19.35
2019-04-23T20:18:05.273Z,18.27
2019-04-23T20:23:30.686Z,20.60
2019-04-23T20:26:12.211Z,17.10
2019-04-23T20:28:51.301Z,17.30
2019-04-23T20:31:54.564Z,15.00
2019-04-23T20:36:34.619Z,13.50
2019-04-23T20:39:09.296Z,17.40
2019-04-23T20:42:02.344Z,15.80
2019-04-23T20:47:08.576Z,14.20
2019-04-23T20:49:42.657Z,20.52
2019-04-23T20:57:43.961Z,17.45
2019-04-23T21:05:27.930Z,15.68
2019-04-23T21:07:57.982Z,21.17
2019-04-23T21:10:34.929Z,16.07
2019-04-23T21:15:42.155Z,13.03
2019-04-23T21:20:42.986Z,14.05
2019-04-23T21:25:47.620Z,16.90
2019-04-23T21:31:06.575Z,17.37
2019-04-23T21:33:43.905Z,17.30
2019-04-23T21:46:47.917Z,14.95
2019-04-23T21:49:18.044Z,15.25
2019-04-23T21:54:14.926Z,11.50
2019-04-23T21:56:46.953Z,13.15
2019-04-23T21:59:13.385Z,12.50
2019-04-23T22:01:54.313Z,15.68
2019-04-23T22:04:35.727Z,12.93
2019-04-23T22:06:59.106Z,16.15
2019-04-23T22:12:08.377Z,12.55
2019-04-23T22:14:45.673Z,13.43
2019-04-23T22:17:20.223Z,13.43
2019-04-23T22:19:59.819Z,13.10
2019-04-23T22:22:32.332Z,12.20
2019-04-23T22:24:53.319Z,14.03
2019-04-23T22:27:32.823Z,11.97
2019-04-23T22:29:59.103Z,12.88
2019-04-23T22:35:07.646Z,14.05
2019-04-23T22:37:53.959Z,15.35
2019-04-23T22:40:18.158Z,13.68
2019-04-23T22:43:09.819Z,16.80
2019-04-23T22:45:26.573Z,20.48
2019-04-23T22:50:28.237Z,20.20
2019-04-23T22:53:08.757Z,19.32
2019-04-23T22:55:40.504Z,18.80
2019-04-23T23:00:59.641Z,24.57
2019-04-23T23:03:33.364Z,31.07
2019-04-23T23:08:55.983Z,28.95
2019-04-23T23:11:13.624Z,31.42
2019-04-23T23:14:10.114Z,26.33
2019-04-23T23:16:21.358Z,27.40
2019-04-23T23:19:06.577Z,29.70
2019-04-23T23:21:33.821Z,25.00
2019-04-23T23:24:06.151Z,27.75
2019-04-23T23:26:51.873Z,23.20
2019-04-23T23:29:12.378Z,25.08
2019-04-23T23:31:54.182Z,24.80
2019-04-23T23:42:05.965Z,27.25
2019-04-23T23:47:07.341Z,26.30
2019-04-23T23:49:43.864Z,28.90
2019-04-23T23:52:13.184Z,26.12
2019-04-23T23:54:48.410Z,23.95
2019-04-23T23:57:16.562Z,26.07
